sensor_id;sensor_type;location;lat;lon;timestamp;temperature;humidity
42743;DHT22;28397;44.552;-0.848;2024-02-26T00:01:26;11.80;99.90
42743;DHT22;28397;44.552;-0.848;2024-02-26T00:03:52;11.80;99.90
42743;DHT22;28397;44.552;-0.848;2024-02-26T00:06:19;11.70;99.90
42743;DHT22;28397;44.552;-0.848;2024-02-26T00:08:45;11.70;99.90
42743;DHT22;28397;44.552;-0.848;2024-02-26T00:11:11;11.70;99.90
42743;DHT22;28397;44.552;-0.848;2024-02-26T00:13:36;11.70;99.90
42743;DHT22;28397;44.552;-0.848;2024-02-26T00:16:06;11.70;99.90
42743;DHT22;28397;44.552;-0.848;2024-02-26T00:18:33;11.70;99.90
42743;DHT22;28397;44.552;-0.848;2024-02-26T00:20:58;11.70;99.90
42743;DHT22;28397;44.552;-0.848;2024-02-26T00:23:24;11.60;99.90
42743;DHT22;28397;44.552;-0.848;2024-02-26T00:25:50;11.70;99.90
42743;DHT22;28397;44.552;-0.848;2024-02-26T00:28:15;11.70;99.90
42743;DHT22;28397;44.552;-0.848;2024-02-26T00:30:41;11.60;99.90
42743;DHT22;28397;44.552;-0.848;2024-02-26T00:33:06;11.70;99.90
42743;DHT22;28397;44.552;-0.848;2024-02-26T00:35:32;11.60;99.90
42743;DHT22;28397;44.552;-0.848;2024-02-26T00:37:58;11.60;99.90
42743;DHT22;28397;44.552;-0.848;2024-02-26T00:40:24;11.60;99.90
42743;DHT22;28397;44.552;-0.848;2024-02-26T00:42:50;11.60;99.90
42743;DHT22;28397;44.552;-0.848;2024-02-26T00:45:16;11.70;99.90
42743;DHT22;28397;44.552;-0.848;2024-02-26T00:47:42;12.00;99.90
42743;DHT22;28397;44.552;-0.848;2024-02-26T00:50:08;12.20;99.90
42743;DHT22;28397;44.552;-0.848;2024-02-26T00:52:34;12.30;99.90
42743;DHT22;28397;44.552;-0.848;2024-02-26T00:55:00;12.40;99.90
42743;DHT22;28397;44.552;-0.848;2024-02-26T00:57:25;12.50;99.90
42743;DHT22;28397;44.552;-0.848;2024-02-26T00:59:51;12.60;99.90
42743;DHT22;28397;44.552;-0.848;2024-02-26T01:02:17;12.50;99.90
42743;DHT22;28397;44.552;-0.848;2024-02-26T01:04:42;12.50;99.90
42743;DHT22;28397;44.552;-0.848;2024-02-26T01:07:08;12.30;99.90
42743;DHT22;28397;44.552;-0.848;2024-02-26T01:09:34;12.20;99.90
42743;DHT22;28397;44.552;-0.848;2024-02-26T01:12:00;12.10;99.90
42743;DHT22;28397;44.552;-0.848;2024-02-26T01:14:28;11.90;99.90
42743;DHT22;28397;44.552;-0.848;2024-02-26T01:16:53;11.90;99.90
42743;DHT22;28397;44.552;-0.848;2024-02-26T01:19:19;11.80;99.90
42743;DHT22;28397;44.552;-0.848;2024-02-26T01:21:44;11.80;99.90
42743;DHT22;28397;44.552;-0.848;2024-02-26T01:24:10;11.70;99.90
42743;DHT22;28397;44.552;-0.848;2024-02-26T01:26:36;11.70;99.90
42743;DHT22;28397;44.552;-0.848;2024-02-26T01:29:01;11.70;99.90
42743;DHT22;28397;44.552;-0.848;2024-02-26T01:31:27;11.70;99.90
42743;DHT22;28397;44.552;-0.848;2024-02-26T01:33:53;11.70;99.90
42743;DHT22;28397;44.552;-0.848;2024-02-26T01:36:18;11.50;99.90
42743;DHT22;28397;44.552;-0.848;2024-02-26T01:38:44;11.50;99.90
42743;DHT22;28397;44.552;-0.848;2024-02-26T01:41:10;11.40;99.90
42743;DHT22;28397;44.552;-0.848;2024-02-26T01:43:35;11.40;99.90
42743;DHT22;28397;44.552;-0.848;2024-02-26T01:46:01;11.40;99.90
42743;DHT22;28397;44.552;-0.848;2024-02-26T01:48:26;11.40;99.90
42743;DHT22;28397;44.552;-0.848;2024-02-26T01:50:52;11.40;99.90
42743;DHT22;28397;44.552;-0.848;2024-02-26T01:53:19;11.40;99.90
42743;DHT22;28397;44.552;-0.848;2024-02-26T01:55:45;11.40;99.90
42743;DHT22;28397;44.552;-0.848;2024-02-26T01:58:11;11.40;99.90
42743;DHT22;28397;44.552;-0.848;2024-02-26T02:00:37;11.40;99.90
42743;DHT22;28397;44.552;-0.848;2024-02-26T02:03:04;11.50;99.90
42743;DHT22;28397;44.552;-0.848;2024-02-26T02:05:30;11.40;99.90
42743;DHT22;28397;44.552;-0.848;2024-02-26T02:07:56;11.40;99.90
42743;DHT22;28397;44.552;-0.848;2024-02-26T02:10:22;11.50;99.90
42743;DHT22;28397;44.552;-0.848;2024-02-26T02:12:51;11.50;99.90
42743;DHT22;28397;44.552;-0.848;2024-02-26T02:15:16;11.40;99.90
42743;DHT22;28397;44.552;-0.848;2024-02-26T02:17:42;11.50;99.90
42743;DHT22;28397;44.552;-0.848;2024-02-26T02:20:09;11.40;99.90
42743;DHT22;28397;44.552;-0.848;2024-02-26T02:22:35;11.30;99.90
42743;DHT22;28397;44.552;-0.848;2024-02-26T02:25:00;11.20;99.90
42743;DHT22;28397;44.552;-0.848;2024-02-26T02:27:27;11.10;99.90
42743;DHT22;28397;44.552;-0.848;2024-02-26T02:29:53;11.10;99.90
42743;DHT22;28397;44.552;-0.848;2024-02-26T02:32:19;11.10;99.90
42743;DHT22;28397;44.552;-0.848;2024-02-26T02:34:45;11.30;99.90
42743;DHT22;28397;44.552;-0.848;2024-02-26T02:37:11;11.60;99.90
42743;DHT22;28397;44.552;-0.848;2024-02-26T02:39:37;11.80;99.90
42743;DHT22;28397;44.552;-0.848;2024-02-26T02:42:03;11.90;99.90
42743;DHT22;28397;44.552;-0.848;2024-02-26T02:44:28;11.90;99.90
42743;DHT22;28397;44.552;-0.848;2024-02-26T02:46:54;11.90;99.90
42743;DHT22;28397;44.552;-0.848;2024-02-26T02:49:20;12.00;99.90
42743;DHT22;28397;44.552;-0.848;2024-02-26T02:51:45;11.90;99.90
42743;DHT22;28397;44.552;-0.848;2024-02-26T02:54:11;11.90;99.90
42743;DHT22;28397;44.552;-0.848;2024-02-26T02:56:37;11.60;99.90
42743;DHT22;28397;44.552;-0.848;2024-02-26T02:59:03;11.50;99.90
42743;DHT22;28397;44.552;-0.848;2024-02-26T03:01:28;11.50;99.90
42743;DHT22;28397;44.552;-0.848;2024-02-26T03:03:54;11.40;99.90
42743;DHT22;28397;44.552;-0.848;2024-02-26T03:06:20;11.30;99.90
42743;DHT22;28397;44.552;-0.848;2024-02-26T03:08:46;11.30;99.90
42743;DHT22;28397;44.552;-0.848;2024-02-26T03:11:15;11.20;99.90
42743;DHT22;28397;44.552;-0.848;2024-02-26T03:13:41;11.20;99.90
42743;DHT22;28397;44.552;-0.848;2024-02-26T03:16:07;11.20;99.90
42743;DHT22;28397;44.552;-0.848;2024-02-26T03:18:33;11.20;99.90
42743;DHT22;28397;44.552;-0.848;2024-02-26T03:20:58;11.20;99.90
42743;DHT22;28397;44.552;-0.848;2024-02-26T03:23:24;11.20;99.90
42743;DHT22;28397;44.552;-0.848;2024-02-26T03:25:49;11.20;99.90
42743;DHT22;28397;44.552;-0.848;2024-02-26T03:28:15;11.10;99.90
42743;DHT22;28397;44.552;-0.848;2024-02-26T03:30:41;11.10;99.90
42743;DHT22;28397;44.552;-0.848;2024-02-26T03:33:06;11.10;99.90
42743;DHT22;28397;44.552;-0.848;2024-02-26T03:35:32;11.00;99.90
42743;DHT22;28397;44.552;-0.848;2024-02-26T03:37:57;11.00;99.90
42743;DHT22;28397;44.552;-0.848;2024-02-26T03:40:23;11.00;99.90
42743;DHT22;28397;44.552;-0.848;2024-02-26T03:42:49;11.00;99.90
42743;DHT22;28397;44.552;-0.848;2024-02-26T03:45:16;11.10;99.90
42743;DHT22;28397;44.552;-0.848;2024-02-26T03:47:41;11.10;99.90
42743;DHT22;28397;44.552;-0.848;2024-02-26T03:50:07;11.00;99.90
42743;DHT22;28397;44.552;-0.848;2024-02-26T03:52:33;11.00;99.90
42743;DHT22;28397;44.552;-0.848;2024-02-26T03:54:59;11.00;99.90
42743;DHT22;28397;44.552;-0.848;2024-02-26T03:57:25;11.00;99.90
42743;DHT22;28397;44.552;-0.848;2024-02-26T03:59:51;11.00;99.90
42743;DHT22;28397;44.552;-0.848;2024-02-26T04:02:16;11.10;99.90
42743;DHT22;28397;44.552;-0.848;2024-02-26T04:04:45;11.00;99.90
42743;DHT22;28397;44.552;-0.848;2024-02-26T04:07:10;11.10;99.90
42743;DHT22;28397;44.552;-0.848;2024-02-26T04:09:37;11.10;99.90
42743;DHT22;28397;44.552;-0.848;2024-02-26T04:12:03;11.10;99.90
42743;DHT22;28397;44.552;-0.848;2024-02-26T04:14:28;11.10;99.90
42743;DHT22;28397;44.552;-0.848;2024-02-26T04:16:54;11.00;99.90
42743;DHT22;28397;44.552;-0.848;2024-02-26T04:19:20;11.00;99.90
42743;DHT22;28397;44.552;-0.848;2024-02-26T04:21:46;11.10;99.90
42743;DHT22;28397;44.552;-0.848;2024-02-26T04:24:11;11.40;99.90
42743;DHT22;28397;44.552;-0.848;2024-02-26T04:26:37;11.70;99.90
42743;DHT22;28397;44.552;-0.848;2024-02-26T04:29:03;11.80;99.90
42743;DHT22;28397;44.552;-0.848;2024-02-26T04:31:28;11.90;99.90
42743;DHT22;28397;44.552;-0.848;2024-02-26T04:33:55;11.90;99.90
42743;DHT22;28397;44.552;-0.848;2024-02-26T04:36:21;12.10;99.90
42743;DHT22;28397;44.552;-0.848;2024-02-26T04:38:47;12.00;99.90
42743;DHT22;28397;44.552;-0.848;2024-02-26T04:41:13;12.10;99.90
42743;DHT22;28397;44.552;-0.848;2024-02-26T04:43:38;12.10;99.90
42743;DHT22;28397;44.552;-0.848;2024-02-26T04:46:09;11.80;99.90
42743;DHT22;28397;44.552;-0.848;2024-02-26T04:48:36;11.60;99.90
42743;DHT22;28397;44.552;-0.848;2024-02-26T04:51:02;11.40;99.90
42743;DHT22;28397;44.552;-0.848;2024-02-26T04:53:28;11.40;99.90
42743;DHT22;28397;44.552;-0.848;2024-02-26T04:55:53;11.30;99.90
42743;DHT22;28397;44.552;-0.848;2024-02-26T04:58:19;11.10;99.90
42743;DHT22;28397;44.552;-0.848;2024-02-26T05:00:44;11.10;99.90
42743;DHT22;28397;44.552;-0.848;2024-02-26T05:03:10;11.10;99.90
42743;DHT22;28397;44.552;-0.848;2024-02-26T05:05:41;11.00;99.90
42743;DHT22;28397;44.552;-0.848;2024-02-26T05:08:06;11.00;99.90
42743;DHT22;28397;44.552;-0.848;2024-02-26T05:10:33;11.00;99.90
42743;DHT22;28397;44.552;-0.848;2024-02-26T05:12:59;11.00;99.90
42743;DHT22;28397;44.552;-0.848;2024-02-26T05:15:24;11.00;99.90
42743;DHT22;28397;44.552;-0.848;2024-02-26T05:17:50;11.00;99.90
42743;DHT22;28397;44.552;-0.848;2024-02-26T05:20:16;11.00;99.90
42743;DHT22;28397;44.552;-0.848;2024-02-26T05:22:42;11.00;99.90
42743;DHT22;28397;44.552;-0.848;2024-02-26T05:25:07;10.80;99.90
42743;DHT22;28397;44.552;-0.848;2024-02-26T05:27:33;10.80;99.90
42743;DHT22;28397;44.552;-0.848;2024-02-26T05:29:59;10.90;99.90
42743;DHT22;28397;44.552;-0.848;2024-02-26T05:32:24;10.90;99.90
42743;DHT22;28397;44.552;-0.848;2024-02-26T05:34:50;10.90;99.90
42743;DHT22;28397;44.552;-0.848;2024-02-26T05:37:16;11.00;99.90
42743;DHT22;28397;44.552;-0.848;2024-02-26T05:39:41;11.00;99.90
42743;DHT22;28397;44.552;-0.848;2024-02-26T05:42:07;11.00;99.90
42743;DHT22;28397;44.552;-0.848;2024-02-26T05:44:34;11.00;99.90
42743;DHT22;28397;44.552;-0.848;2024-02-26T05:47:00;11.10;99.90
42743;DHT22;28397;44.552;-0.848;2024-02-26T05:49:25;11.10;99.90
42743;DHT22;28397;44.552;-0.848;2024-02-26T05:51:51;11.10;99.90
42743;DHT22;28397;44.552;-0.848;2024-02-26T05:54:17;11.00;99.90
42743;DHT22;28397;44.552;-0.848;2024-02-26T05:56:42;11.00;99.90
42743;DHT22;28397;44.552;-0.848;2024-02-26T05:59:08;11.10;99.90
42743;DHT22;28397;44.552;-0.848;2024-02-26T06:01:34;11.10;99.90
42743;DHT22;28397;44.552;-0.848;2024-02-26T06:03:59;11.00;99.90
42743;DHT22;28397;44.552;-0.848;2024-02-26T06:06:25;10.90;99.90
42743;DHT22;28397;44.552;-0.848;2024-02-26T06:08:51;10.90;99.90
42743;DHT22;28397;44.552;-0.848;2024-02-26T06:11:16;11.00;99.90
42743;DHT22;28397;44.552;-0.848;2024-02-26T06:13:43;11.30;99.90
42743;DHT22;28397;44.552;-0.848;2024-02-26T06:16:08;11.50;99.90
42743;DHT22;28397;44.552;-0.848;2024-02-26T06:18:34;11.70;99.90
42743;DHT22;28397;44.552;-0.848;2024-02-26T06:21:00;11.80;99.90
42743;DHT22;28397;44.552;-0.848;2024-02-26T06:23:26;11.90;99.90
42743;DHT22;28397;44.552;-0.848;2024-02-26T06:25:52;11.80;99.90
42743;DHT22;28397;44.552;-0.848;2024-02-26T06:28:17;12.00;99.90
42743;DHT22;28397;44.552;-0.848;2024-02-26T06:30:43;12.10;99.90
42743;DHT22;28397;44.552;-0.848;2024-02-26T06:33:09;11.90;99.90
42743;DHT22;28397;44.552;-0.848;2024-02-26T06:35:34;11.70;99.90
42743;DHT22;28397;44.552;-0.848;2024-02-26T06:38:00;11.60;99.90
42743;DHT22;28397;44.552;-0.848;2024-02-26T06:40:26;11.50;99.90
42743;DHT22;28397;44.552;-0.848;2024-02-26T06:42:51;11.40;99.90
42743;DHT22;28397;44.552;-0.848;2024-02-26T06:45:17;11.30;99.90
42743;DHT22;28397;44.552;-0.848;2024-02-26T06:47:44;11.30;99.90
42743;DHT22;28397;44.552;-0.848;2024-02-26T06:50:12;11.20;99.90
42743;DHT22;28397;44.552;-0.848;2024-02-26T06:52:39;11.20;99.90
42743;DHT22;28397;44.552;-0.848;2024-02-26T06:55:05;11.20;99.90
42743;DHT22;28397;44.552;-0.848;2024-02-26T06:57:33;11.10;99.90
42743;DHT22;28397;44.552;-0.848;2024-02-26T06:59:58;11.10;99.90
42743;DHT22;28397;44.552;-0.848;2024-02-26T07:02:24;11.00;99.90
42743;DHT22;28397;44.552;-0.848;2024-02-26T07:04:50;11.00;99.90
42743;DHT22;28397;44.552;-0.848;2024-02-26T07:07:15;11.00;99.90
42743;DHT22;28397;44.552;-0.848;2024-02-26T07:09:43;11.00;99.90
42743;DHT22;28397;44.552;-0.848;2024-02-26T07:12:09;11.00;99.90
42743;DHT22;28397;44.552;-0.848;2024-02-26T07:14:35;11.00;99.90
42743;DHT22;28397;44.552;-0.848;2024-02-26T07:17:03;11.00;99.90
42743;DHT22;28397;44.552;-0.848;2024-02-26T07:19:28;11.00;99.90
42743;DHT22;28397;44.552;-0.848;2024-02-26T07:21:54;11.10;99.90
42743;DHT22;28397;44.552;-0.848;2024-02-26T07:24:20;11.10;99.90
42743;DHT22;28397;44.552;-0.848;2024-02-26T07:26:46;11.10;99.90
42743;DHT22;28397;44.552;-0.848;2024-02-26T07:29:11;11.10;99.90
42743;DHT22;28397;44.552;-0.848;2024-02-26T07:31:37;11.10;99.90
42743;DHT22;28397;44.552;-0.848;2024-02-26T07:34:03;11.10;99.90
42743;DHT22;28397;44.552;-0.848;2024-02-26T07:36:28;11.10;99.90
42743;DHT22;28397;44.552;-0.848;2024-02-26T07:38:54;11.10;99.90
42743;DHT22;28397;44.552;-0.848;2024-02-26T07:41:20;11.00;99.90
42743;DHT22;28397;44.552;-0.848;2024-02-26T07:43:46;10.90;99.90
42743;DHT22;28397;44.552;-0.848;2024-02-26T07:46:12;10.90;99.90
42743;DHT22;28397;44.552;-0.848;2024-02-26T07:48:38;10.90;99.90
42743;DHT22;28397;44.552;-0.848;2024-02-26T07:51:04;11.00;99.90
42743;DHT22;28397;44.552;-0.848;2024-02-26T07:53:30;11.00;99.90
42743;DHT22;28397;44.552;-0.848;2024-02-26T07:55:56;11.10;99.90
42743;DHT22;28397;44.552;-0.848;2024-02-26T07:58:23;11.20;99.90
42743;DHT22;28397;44.552;-0.848;2024-02-26T08:00:49;11.20;99.90
42743;DHT22;28397;44.552;-0.848;2024-02-26T08:03:15;11.40;99.90
42743;DHT22;28397;44.552;-0.848;2024-02-26T08:05:41;11.60;99.90
42743;DHT22;28397;44.552;-0.848;2024-02-26T08:08:08;11.80;99.90
42743;DHT22;28397;44.552;-0.848;2024-02-26T08:10:34;11.80;99.90
42743;DHT22;28397;44.552;-0.848;2024-02-26T08:13:00;11.80;99.90
42743;DHT22;28397;44.552;-0.848;2024-02-26T08:15:34;12.00;99.90
42743;DHT22;28397;44.552;-0.848;2024-02-26T08:18:01;11.80;99.90
42743;DHT22;28397;44.552;-0.848;2024-02-26T08:20:29;11.90;99.90
42743;DHT22;28397;44.552;-0.848;2024-02-26T08:22:55;11.90;99.90
42743;DHT22;28397;44.552;-0.848;2024-02-26T08:25:21;11.70;99.90
42743;DHT22;28397;44.552;-0.848;2024-02-26T08:27:47;11.60;99.90
42743;DHT22;28397;44.552;-0.848;2024-02-26T08:30:14;11.40;99.90
42743;DHT22;28397;44.552;-0.848;2024-02-26T08:32:44;11.30;99.90
42743;DHT22;28397;44.552;-0.848;2024-02-26T08:35:10;11.30;99.90
42743;DHT22;28397;44.552;-0.848;2024-02-26T08:37:36;11.20;99.90
42743;DHT22;28397;44.552;-0.848;2024-02-26T08:40:02;11.00;99.90
42743;DHT22;28397;44.552;-0.848;2024-02-26T08:42:29;11.00;99.90
42743;DHT22;28397;44.552;-0.848;2024-02-26T08:44:56;10.90;99.90
42743;DHT22;28397;44.552;-0.848;2024-02-26T08:47:21;10.80;99.90
42743;DHT22;28397;44.552;-0.848;2024-02-26T08:49:48;10.80;99.90
42743;DHT22;28397;44.552;-0.848;2024-02-26T08:52:14;10.80;99.90
42743;DHT22;28397;44.552;-0.848;2024-02-26T08:54:39;10.80;99.90
42743;DHT22;28397;44.552;-0.848;2024-02-26T08:57:06;10.80;99.90
42743;DHT22;28397;44.552;-0.848;2024-02-26T08:59:31;10.80;99.90
42743;DHT22;28397;44.552;-0.848;2024-02-26T09:01:57;10.80;99.90
42743;DHT22;28397;44.552;-0.848;2024-02-26T09:04:22;10.80;99.90
42743;DHT22;28397;44.552;-0.848;2024-02-26T09:06:48;10.80;99.90
42743;DHT22;28397;44.552;-0.848;2024-02-26T09:09:14;10.70;99.90
42743;DHT22;28397;44.552;-0.848;2024-02-26T09:11:40;10.70;99.90
42743;DHT22;28397;44.552;-0.848;2024-02-26T09:14:05;10.60;99.90
42743;DHT22;28397;44.552;-0.848;2024-02-26T09:16:31;10.60;99.90
42743;DHT22;28397;44.552;-0.848;2024-02-26T09:18:57;10.60;99.90
42743;DHT22;28397;44.552;-0.848;2024-02-26T09:21:23;10.60;99.90
42743;DHT22;28397;44.552;-0.848;2024-02-26T09:23:50;10.60;99.90
42743;DHT22;28397;44.552;-0.848;2024-02-26T09:26:16;10.60;99.90
42743;DHT22;28397;44.552;-0.848;2024-02-26T09:28:42;10.60;99.90
42743;DHT22;28397;44.552;-0.848;2024-02-26T09:31:08;10.60;99.90
42743;DHT22;28397;44.552;-0.848;2024-02-26T09:33:34;10.60;99.90
42743;DHT22;28397;44.552;-0.848;2024-02-26T09:36:00;10.60;99.90
42743;DHT22;28397;44.552;-0.848;2024-02-26T09:38:28;10.70;99.90
42743;DHT22;28397;44.552;-0.848;2024-02-26T09:40:57;10.70;99.90
42743;DHT22;28397;44.552;-0.848;2024-02-26T09:43:23;10.70;99.90
42743;DHT22;28397;44.552;-0.848;2024-02-26T09:45:53;10.70;99.90
42743;DHT22;28397;44.552;-0.848;2024-02-26T09:48:20;10.80;99.90
42743;DHT22;28397;44.552;-0.848;2024-02-26T09:50:46;11.00;99.90
42743;DHT22;28397;44.552;-0.848;2024-02-26T09:53:12;11.20;99.90
42743;DHT22;28397;44.552;-0.848;2024-02-26T09:55:40;11.40;99.90
42743;DHT22;28397;44.552;-0.848;2024-02-26T09:58:06;11.50;99.90
42743;DHT22;28397;44.552;-0.848;2024-02-26T10:00:36;11.60;99.90
42743;DHT22;28397;44.552;-0.848;2024-02-26T10:03:04;11.60;99.90
42743;DHT22;28397;44.552;-0.848;2024-02-26T10:05:31;11.70;99.90
42743;DHT22;28397;44.552;-0.848;2024-02-26T10:07:57;11.70;99.90
42743;DHT22;28397;44.552;-0.848;2024-02-26T10:10:24;11.70;99.90
42743;DHT22;28397;44.552;-0.848;2024-02-26T10:12:49;11.50;99.90
42743;DHT22;28397;44.552;-0.848;2024-02-26T10:15:15;11.40;99.90
42743;DHT22;28397;44.552;-0.848;2024-02-26T10:17:41;11.30;99.90
42743;DHT22;28397;44.552;-0.848;2024-02-26T10:20:12;11.30;99.90
42743;DHT22;28397;44.552;-0.848;2024-02-26T10:22:40;11.20;99.90
42743;DHT22;28397;44.552;-0.848;2024-02-26T10:25:06;11.30;99.90
42743;DHT22;28397;44.552;-0.848;2024-02-26T10:27:34;11.30;99.90
42743;DHT22;28397;44.552;-0.848;2024-02-26T10:30:18;11.30;99.90
42743;DHT22;28397;44.552;-0.848;2024-02-26T10:32:48;11.30;99.90
42743;DHT22;28397;44.552;-0.848;2024-02-26T10:35:15;11.30;99.90
42743;DHT22;28397;44.552;-0.848;2024-02-26T10:37:41;11.20;99.90
42743;DHT22;28397;44.552;-0.848;2024-02-26T10:40:16;11.30;99.90
42743;DHT22;28397;44.552;-0.848;2024-02-26T10:42:43;11.30;99.90
42743;DHT22;28397;44.552;-0.848;2024-02-26T10:45:09;11.30;99.90
42743;DHT22;28397;44.552;-0.848;2024-02-26T10:47:36;11.30;99.90
42743;DHT22;28397;44.552;-0.848;2024-02-26T10:50:03;11.40;99.90
42743;DHT22;28397;44.552;-0.848;2024-02-26T10:52:31;11.40;99.90
42743;DHT22;28397;44.552;-0.848;2024-02-26T10:55:03;11.40;99.90
42743;DHT22;28397;44.552;-0.848;2024-02-26T10:57:35;11.30;99.90
42743;DHT22;28397;44.552;-0.848;2024-02-26T11:00:03;11.30;99.90
42743;DHT22;28397;44.552;-0.848;2024-02-26T11:02:36;11.20;99.90
42743;DHT22;28397;44.552;-0.848;2024-02-26T11:05:06;11.20;99.90
42743;DHT22;28397;44.552;-0.848;2024-02-26T11:07:35;11.10;99.90
42743;DHT22;28397;44.552;-0.848;2024-02-26T11:10:03;11.10;99.90
42743;DHT22;28397;44.552;-0.848;2024-02-26T11:12:31;11.20;99.90
42743;DHT22;28397;44.552;-0.848;2024-02-26T11:14:57;11.30;99.90
42743;DHT22;28397;44.552;-0.848;2024-02-26T11:17:26;11.40;99.90
42743;DHT22;28397;44.552;-0.848;2024-02-26T11:19:55;11.60;99.90
42743;DHT22;28397;44.552;-0.848;2024-02-26T11:22:21;11.60;99.90
42743;DHT22;28397;44.552;-0.848;2024-02-26T11:24:48;11.60;99.90
42743;DHT22;28397;44.552;-0.848;2024-02-26T11:27:16;11.60;99.90
42743;DHT22;28397;44.552;-0.848;2024-02-26T11:29:48;11.50;99.90
42743;DHT22;28397;44.552;-0.848;2024-02-26T11:32:15;11.40;99.90
42743;DHT22;28397;44.552;-0.848;2024-02-26T11:34:41;11.30;99.90
42743;DHT22;28397;44.552;-0.848;2024-02-26T11:37:15;11.30;99.90
42743;DHT22;28397;44.552;-0.848;2024-02-26T11:39:42;11.40;99.90
42743;DHT22;28397;44.552;-0.848;2024-02-26T11:42:08;11.70;99.90
42743;DHT22;28397;44.552;-0.848;2024-02-26T11:44:34;12.00;99.90
42743;DHT22;28397;44.552;-0.848;2024-02-26T11:47:22;12.10;99.90
42743;DHT22;28397;44.552;-0.848;2024-02-26T11:49:48;12.30;99.90
42743;DHT22;28397;44.552;-0.848;2024-02-26T11:52:14;12.40;99.90
42743;DHT22;28397;44.552;-0.848;2024-02-26T11:54:51;12.50;99.90
42743;DHT22;28397;44.552;-0.848;2024-02-26T11:59:47;12.40;99.90
42743;DHT22;28397;44.552;-0.848;2024-02-26T12:02:39;12.60;99.90
42743;DHT22;28397;44.552;-0.848;2024-02-26T12:05:09;12.50;99.90
42743;DHT22;28397;44.552;-0.848;2024-02-26T12:07:39;12.40;99.90
42743;DHT22;28397;44.552;-0.848;2024-02-26T12:10:27;12.40;99.90
42743;DHT22;28397;44.552;-0.848;2024-02-26T12:13:13;12.30;99.90
42743;DHT22;28397;44.552;-0.848;2024-02-26T12:15:41;12.20;99.90
42743;DHT22;28397;44.552;-0.848;2024-02-26T12:18:08;12.20;99.90
42743;DHT22;28397;44.552;-0.848;2024-02-26T12:20:35;12.20;99.90
42743;DHT22;28397;44.552;-0.848;2024-02-26T12:23:02;12.10;99.90
42743;DHT22;28397;44.552;-0.848;2024-02-26T12:25:29;12.10;99.90
42743;DHT22;28397;44.552;-0.848;2024-02-26T12:27:55;12.10;99.90
42743;DHT22;28397;44.552;-0.848;2024-02-26T12:30:21;12.10;99.90
42743;DHT22;28397;44.552;-0.848;2024-02-26T12:32:49;12.20;99.90
42743;DHT22;28397;44.552;-0.848;2024-02-26T12:35:16;12.10;99.90
42743;DHT22;28397;44.552;-0.848;2024-02-26T12:37:42;12.10;99.90
42743;DHT22;28397;44.552;-0.848;2024-02-26T12:40:09;12.10;99.90
42743;DHT22;28397;44.552;-0.848;2024-02-26T12:42:35;12.10;99.90
42743;DHT22;28397;44.552;-0.848;2024-02-26T12:45:11;12.10;99.90
42743;DHT22;28397;44.552;-0.848;2024-02-26T12:47:38;12.00;99.90
42743;DHT22;28397;44.552;-0.848;2024-02-26T12:50:05;12.10;99.90
42743;DHT22;28397;44.552;-0.848;2024-02-26T12:52:35;12.10;99.90
42743;DHT22;28397;44.552;-0.848;2024-02-26T12:55:02;12.10;99.90
42743;DHT22;28397;44.552;-0.848;2024-02-26T12:57:35;12.10;99.90
42743;DHT22;28397;44.552;-0.848;2024-02-26T13:00:02;12.10;99.90
42743;DHT22;28397;44.552;-0.848;2024-02-26T13:02:30;12.10;99.90
42743;DHT22;28397;44.552;-0.848;2024-02-26T13:04:56;12.10;99.90
42743;DHT22;28397;44.552;-0.848;2024-02-26T13:07:22;12.00;99.90
42743;DHT22;28397;44.552;-0.848;2024-02-26T13:09:48;12.00;99.90
42743;DHT22;28397;44.552;-0.848;2024-02-26T13:12:14;12.00;99.90
42743;DHT22;28397;44.552;-0.848;2024-02-26T13:14:40;12.10;99.90
42743;DHT22;28397;44.552;-0.848;2024-02-26T13:17:05;12.10;99.90
42743;DHT22;28397;44.552;-0.848;2024-02-26T13:19:32;12.10;99.90
42743;DHT22;28397;44.552;-0.848;2024-02-26T13:22:05;12.00;99.90
42743;DHT22;28397;44.552;-0.848;2024-02-26T13:24:32;12.00;99.90
42743;DHT22;28397;44.552;-0.848;2024-02-26T13:26:58;12.10;99.90
42743;DHT22;28397;44.552;-0.848;2024-02-26T13:29:23;12.30;99.90
42743;DHT22;28397;44.552;-0.848;2024-02-26T13:31:57;12.40;99.90
42743;DHT22;28397;44.552;-0.848;2024-02-26T13:34:27;12.50;99.90
42743;DHT22;28397;44.552;-0.848;2024-02-26T13:36:53;12.70;99.90
42743;DHT22;28397;44.552;-0.848;2024-02-26T13:39:24;12.70;99.90
42743;DHT22;28397;44.552;-0.848;2024-02-26T13:41:51;12.80;99.90
42743;DHT22;28397;44.552;-0.848;2024-02-26T13:44:19;12.60;99.90
42743;DHT22;28397;44.552;-0.848;2024-02-26T13:46:44;12.70;99.90
42743;DHT22;28397;44.552;-0.848;2024-02-26T13:49:10;12.50;99.90
42743;DHT22;28397;44.552;-0.848;2024-02-26T13:51:37;12.20;99.90
42743;DHT22;28397;44.552;-0.848;2024-02-26T13:54:03;12.10;99.90
42743;DHT22;28397;44.552;-0.848;2024-02-26T13:56:29;12.00;99.90
42743;DHT22;28397;44.552;-0.848;2024-02-26T13:58:55;12.00;99.90
42743;DHT22;28397;44.552;-0.848;2024-02-26T14:01:21;12.00;99.90
42743;DHT22;28397;44.552;-0.848;2024-02-26T14:03:46;12.10;99.90
42743;DHT22;28397;44.552;-0.848;2024-02-26T14:06:12;12.20;99.90
42743;DHT22;28397;44.552;-0.848;2024-02-26T14:08:38;12.40;99.90
42743;DHT22;28397;44.552;-0.848;2024-02-26T14:11:03;12.50;99.90
42743;DHT22;28397;44.552;-0.848;2024-02-26T14:13:29;12.30;99.90
42743;DHT22;28397;44.552;-0.848;2024-02-26T14:15:55;12.20;99.90
42743;DHT22;28397;44.552;-0.848;2024-02-26T14:18:21;12.00;99.90
42743;DHT22;28397;44.552;-0.848;2024-02-26T14:20:47;11.90;99.90
42743;DHT22;28397;44.552;-0.848;2024-02-26T14:23:12;11.90;99.90
42743;DHT22;28397;44.552;-0.848;2024-02-26T14:25:38;11.90;99.90
42743;DHT22;28397;44.552;-0.848;2024-02-26T14:28:04;12.00;99.90
42743;DHT22;28397;44.552;-0.848;2024-02-26T14:30:29;12.10;99.90
42743;DHT22;28397;44.552;-0.848;2024-02-26T14:32:55;12.30;99.90
42743;DHT22;28397;44.552;-0.848;2024-02-26T14:35:21;12.30;99.90
42743;DHT22;28397;44.552;-0.848;2024-02-26T14:37:46;12.30;99.90
42743;DHT22;28397;44.552;-0.848;2024-02-26T14:40:13;12.10;99.90
42743;DHT22;28397;44.552;-0.848;2024-02-26T14:42:40;12.00;99.90
42743;DHT22;28397;44.552;-0.848;2024-02-26T14:45:06;12.10;99.90
42743;DHT22;28397;44.552;-0.848;2024-02-26T14:47:37;12.10;99.90
42743;DHT22;28397;44.552;-0.848;2024-02-26T14:50:04;12.10;99.90
42743;DHT22;28397;44.552;-0.848;2024-02-26T14:52:30;12.20;99.90
42743;DHT22;28397;44.552;-0.848;2024-02-26T14:54:56;12.20;99.90
42743;DHT22;28397;44.552;-0.848;2024-02-26T14:57:23;12.30;99.90
42743;DHT22;28397;44.552;-0.848;2024-02-26T14:59:49;12.40;99.90
42743;DHT22;28397;44.552;-0.848;2024-02-26T15:02:16;12.50;99.90
42743;DHT22;28397;44.552;-0.848;2024-02-26T15:04:43;12.80;99.90
42743;DHT22;28397;44.552;-0.848;2024-02-26T15:07:09;12.90;99.90
42743;DHT22;28397;44.552;-0.848;2024-02-26T15:09:35;12.90;99.90
42743;DHT22;28397;44.552;-0.848;2024-02-26T15:12:03;12.60;99.90
42743;DHT22;28397;44.552;-0.848;2024-02-26T15:14:32;12.60;99.90